createdAt,value
2023-04-15T00:01:19.493Z,5.76
2023-04-15T00:08:57.208Z,6.05
2023-04-15T00:13:58.697Z,5.37
2023-04-15T00:16:26.859Z,5.03
2023-04-15T00:18:54.864Z,4.66
2023-04-15T00:21:22.937Z,4.85
2023-04-15T00:23:53.767Z,4.51
2023-04-15T00:26:22.409Z,4.72
2023-04-15T00:28:50.623Z,4.57
2023-04-15T00:31:18.789Z,4.70
2023-04-15T00:33:47.935Z,4.30
2023-04-15T00:36:16.062Z,4.45
2023-04-15T00:38:44.209Z,4.26
2023-04-15T00:41:12.965Z,4.67
2023-04-15T00:43:41.193Z,4.70
2023-04-15T00:46:09.538Z,4.41
2023-04-15T00:48:39.001Z,3.98
2023-04-15T00:51:07.796Z,3.77
2023-04-15T00:53:35.984Z,3.60
2023-04-15T00:58:37.300Z,3.61
2023-04-15T01:01:05.534Z,3.75
2023-04-15T01:03:34.663Z,4.27
2023-04-15T01:06:03.994Z,4.29
2023-04-15T01:08:32.378Z,3.96
2023-04-15T01:11:02.300Z,3.80
2023-04-15T01:13:30.976Z,4.01
2023-04-15T01:15:59.193Z,4.57
2023-04-15T01:18:28.684Z,4.37
2023-04-15T01:20:56.728Z,4.15
2023-04-15T01:23:26.448Z,3.96
2023-04-15T01:25:54.503Z,4.30
2023-04-15T01:28:22.554Z,3.99
2023-04-15T01:30:50.690Z,4.03
2023-04-15T01:33:18.756Z,3.70
2023-04-15T01:35:47.915Z,3.24
2023-04-15T01:38:16.498Z,3.26
2023-04-15T01:40:46.090Z,3.01
2023-04-15T01:43:14.062Z,2.63
2023-04-15T01:45:43.900Z,2.85
2023-04-15T01:48:12.494Z,3.41
2023-04-15T01:50:40.584Z,3.95
2023-04-15T01:53:08.718Z,4.09
2023-04-15T01:55:37.192Z,4.24
2023-04-15T01:58:05.181Z,5.13
2023-04-15T02:00:33.474Z,5.83
2023-04-15T02:03:01.644Z,6.72
2023-04-15T02:05:29.746Z,6.95
2023-04-15T02:07:58.064Z,7.63
2023-04-15T02:10:26.342Z,7.47
2023-04-15T02:12:54.377Z,7.74
2023-04-15T02:15:23.189Z,7.14
2023-04-15T02:17:52.787Z,7.75
2023-04-15T02:20:21.509Z,7.34
2023-04-15T02:22:49.631Z,7.60
2023-04-15T02:25:17.885Z,7.36
2023-04-15T02:27:45.912Z,7.31
2023-04-15T02:30:14.065Z,7.10
2023-04-15T02:32:45.292Z,6.86
2023-04-15T02:35:13.918Z,7.13
2023-04-15T02:37:44.078Z,7.22
2023-04-15T02:40:13.177Z,7.18
2023-04-15T02:42:41.597Z,7.42
2023-04-15T02:45:13.040Z,7.83
2023-04-15T02:47:41.862Z,7.62
2023-04-15T02:50:12.682Z,8.03
2023-04-15T02:52:42.106Z,7.74
2023-04-15T02:55:10.572Z,7.91
2023-04-15T02:57:39.441Z,7.89
2023-04-15T03:00:11.556Z,7.97
2023-04-15T03:02:42.452Z,7.75
2023-04-15T03:05:14.204Z,7.59
2023-04-15T03:07:47.279Z,7.27
2023-04-15T03:10:15.677Z,7.82
2023-04-15T03:12:43.787Z,7.92
2023-04-15T03:15:15.754Z,8.09
2023-04-15T03:17:46.049Z,8.00
2023-04-15T03:20:14.476Z,7.74
2023-04-15T03:22:42.532Z,7.92
2023-04-15T03:25:10.802Z,7.60
2023-04-15T03:27:39.021Z,8.01
2023-04-15T03:30:07.942Z,7.89
2023-04-15T03:32:38.080Z,8.25
2023-04-15T03:35:08.405Z,7.60
2023-04-15T03:37:36.940Z,7.31
2023-04-15T03:40:05.641Z,7.07
2023-04-15T03:42:33.661Z,7.61
2023-04-15T03:45:01.721Z,7.60
2023-04-15T03:47:29.766Z,7.87
2023-04-15T03:49:57.821Z,7.95
2023-04-15T03:52:26.143Z,7.86
2023-04-15T03:54:54.167Z,8.59
2023-04-15T03:57:22.190Z,8.32
2023-04-15T03:59:50.246Z,9.40
2023-04-15T04:02:18.444Z,9.34
2023-04-15T04:04:46.542Z,9.49
2023-04-15T04:07:18.237Z,9.50
2023-04-15T04:09:47.402Z,9.71
2023-04-15T04:12:15.829Z,9.66
2023-04-15T04:14:43.980Z,9.64
2023-04-15T04:17:12.054Z,8.92
2023-04-15T04:19:40.329Z,8.99
2023-04-15T04:22:08.268Z,8.55
2023-04-15T04:24:36.514Z,8.55
2023-04-15T04:27:05.654Z,8.87
2023-04-15T04:29:33.711Z,8.22
2023-04-15T04:32:01.824Z,8.37
2023-04-15T04:34:30.338Z,8.56
2023-04-15T04:36:58.439Z,8.49
2023-04-15T04:39:26.578Z,9.00
2023-04-15T04:41:54.535Z,8.02
2023-04-15T04:44:22.658Z,7.37
2023-04-15T04:46:50.708Z,7.73
2023-04-15T04:49:18.767Z,8.33
2023-04-15T04:51:48.514Z,9.38
2023-04-15T04:54:17.147Z,9.76
2023-04-15T04:56:45.126Z,10.21
2023-04-15T04:59:13.340Z,10.34
2023-04-15T05:01:42.095Z,10.43
2023-04-15T05:04:10.377Z,10.83
2023-04-15T05:06:38.542Z,11.64
2023-04-15T05:09:06.685Z,11.58
2023-04-15T05:11:34.703Z,12.23
2023-04-15T05:14:02.740Z,11.32
2023-04-15T05:16:30.984Z,11.97
2023-04-15T05:18:59.159Z,12.31
2023-04-15T05:21:27.770Z,12.66
2023-04-15T05:23:56.010Z,13.09
2023-04-15T05:26:24.462Z,13.30
2023-04-15T05:28:52.501Z,13.61
2023-04-15T05:31:20.589Z,13.88
2023-04-15T05:33:48.730Z,13.99
2023-04-15T05:36:16.743Z,14.64
2023-04-15T05:38:44.960Z,13.98
2023-04-15T05:41:13.235Z,14.02
2023-04-15T05:43:41.715Z,13.80
2023-04-15T05:46:09.725Z,14.19
2023-04-15T05:48:37.785Z,14.40
2023-04-15T05:51:06.512Z,15.35
2023-04-15T05:53:34.515Z,15.00
2023-04-15T05:56:02.608Z,14.73
2023-04-15T05:58:30.649Z,14.45
2023-04-15T06:00:58.812Z,13.99
2023-04-15T06:03:27.079Z,14.40
2023-04-15T06:05:55.667Z,13.74
2023-04-15T06:08:23.757Z,13.40
2023-04-15T06:10:51.876Z,13.33
2023-04-15T06:13:19.905Z,13.47
2023-04-15T06:15:48.288Z,15.52
2023-04-15T06:18:16.272Z,16.33
2023-04-15T06:20:44.519Z,17.53
2023-04-15T06:23:12.588Z,18.21
2023-04-15T06:25:40.729Z,18.02
2023-04-15T06:28:08.882Z,17.63
2023-04-15T06:30:36.927Z,17.26
2023-04-15T06:33:06.420Z,16.21
2023-04-15T06:35:34.563Z,16.56
2023-04-15T06:38:02.739Z,16.13
2023-04-15T06:40:31.341Z,15.98
2023-04-15T06:42:59.481Z,14.64
2023-04-15T06:45:27.513Z,14.61
2023-04-15T06:47:58.226Z,14.76
2023-04-15T06:50:26.674Z,14.37
2023-04-15T06:52:55.584Z,12.73
2023-04-15T06:55:23.617Z,13.65
2023-04-15T06:57:51.664Z,13.76
2023-04-15T07:00:20.403Z,14.18
2023-04-15T07:02:48.732Z,13.45
2023-04-15T07:05:16.939Z,12.86
2023-04-15T07:07:45.443Z,13.51
2023-04-15T07:10:15.444Z,12.72
2023-04-15T07:12:43.610Z,13.54
2023-04-15T07:15:12.204Z,13.73
2023-04-15T07:17:41.974Z,13.49
2023-04-15T07:20:10.521Z,13.43
2023-04-15T07:22:38.870Z,12.86
2023-04-15T07:25:07.754Z,11.15
2023-04-15T07:27:36.368Z,9.36
2023-04-15T07:30:04.906Z,8.41
2023-04-15T07:32:32.954Z,8.32
2023-04-15T07:35:02.282Z,9.98
2023-04-15T07:37:30.399Z,10.53
2023-04-15T07:39:58.592Z,8.82
2023-04-15T07:42:26.643Z,7.81
2023-04-15T07:44:54.844Z,6.34
2023-04-15T07:47:22.932Z,8.50
2023-04-15T07:49:51.586Z,10.73
2023-04-15T07:57:25.491Z,10.38
2023-04-15T07:59:53.892Z,10.31
2023-04-15T08:02:22.484Z,9.65
2023-04-15T08:04:50.821Z,8.34
2023-04-15T08:07:19.070Z,7.60
2023-04-15T08:09:47.091Z,7.02
2023-04-15T08:12:16.034Z,6.29
2023-04-15T08:14:44.001Z,6.74
2023-04-15T08:22:19.284Z,1.96
2023-04-15T08:24:48.303Z,0.91
2023-04-15T08:27:16.420Z,0.80
2023-04-15T08:29:45.667Z,0.97
2023-04-15T08:32:25.415Z,0.93
2023-04-15T08:34:53.639Z,2.96
2023-04-15T08:37:23.049Z,6.82
2023-04-15T08:39:51.045Z,6.41
2023-04-15T08:42:21.409Z,5.21
2023-04-15T08:44:49.408Z,6.15
2023-04-15T08:47:17.717Z,4.53
2023-04-15T08:49:45.862Z,4.34
2023-04-15T08:54:48.115Z,4.25
2023-04-15T08:57:16.158Z,4.23
2023-04-15T09:02:17.589Z,3.21
2023-04-15T09:04:45.812Z,2.52
2023-04-15T09:07:13.892Z,1.54
2023-04-15T09:09:42.321Z,1.39
2023-04-15T09:12:11.695Z,1.28
2023-04-15T09:14:42.414Z,1.38
2023-04-15T09:17:10.628Z,1.33
2023-04-15T09:19:38.828Z,1.43
2023-04-15T09:22:06.997Z,1.34
2023-04-15T09:24:39.437Z,1.28
2023-04-15T09:27:07.660Z,1.40
2023-04-15T09:29:35.855Z,1.46
2023-04-15T09:32:11.485Z,1.47
2023-04-15T09:34:39.498Z,1.36
2023-04-15T09:37:08.091Z,1.47
2023-04-15T09:39:47.253Z,1.37
2023-04-15T09:42:15.853Z,1.29
2023-04-15T09:44:44.322Z,1.29
2023-04-15T09:47:30.252Z,1.31
2023-04-15T09:49:59.312Z,1.25
2023-04-15T09:52:29.010Z,1.25
2023-04-15T09:54:58.460Z,1.30
2023-04-15T09:57:34.349Z,1.36
2023-04-15T10:00:08.325Z,1.52
2023-04-15T10:02:38.509Z,1.52
2023-04-15T10:05:07.390Z,1.44
2023-04-15T10:07:35.408Z,1.67
2023-04-15T10:10:04.532Z,1.85
2023-04-15T10:12:33.669Z,1.81
2023-04-15T10:15:07.334Z,1.66
2023-04-15T10:17:35.699Z,1.91
2023-04-15T10:20:05.184Z,1.80
2023-04-15T10:22:33.559Z,1.87
2023-04-15T10:25:02.276Z,1.60
2023-04-15T10:27:30.628Z,1.77
2023-04-15T10:29:58.719Z,1.64
2023-04-15T10:32:27.201Z,1.43
2023-04-15T10:34:55.409Z,1.60
2023-04-15T10:37:33.311Z,1.75
2023-04-15T10:40:01.430Z,1.89
2023-04-15T10:42:34.428Z,1.97
2023-04-15T10:45:02.547Z,1.63
2023-04-15T10:57:54.311Z,1.38
2023-04-15T11:00:25.918Z,1.45
2023-04-15T11:03:06.761Z,1.37
2023-04-15T11:09:06.068Z,1.57
2023-04-15T11:12:05.855Z,1.45
2023-04-15T11:14:35.889Z,1.46
2023-04-15T11:17:04.378Z,1.34
2023-04-15T11:19:39.084Z,1.34
2023-04-15T11:22:08.793Z,1.37
2023-04-15T11:24:37.369Z,1.34
2023-04-15T11:27:05.465Z,1.41
2023-04-15T11:29:33.464Z,1.35
2023-04-15T11:32:09.281Z,1.33
2023-04-15T11:34:37.427Z,1.50
2023-04-15T11:37:06.525Z,1.50
2023-04-15T11:39:34.552Z,1.66
2023-04-15T11:42:02.787Z,1.64
2023-04-15T11:44:30.870Z,1.36
2023-04-15T11:46:58.953Z,1.60
2023-04-15T11:49:31.330Z,1.26
2023-04-15T11:54:33.545Z,1.26
2023-04-15T11:57:02.874Z,1.34
2023-04-15T11:59:45.281Z,1.59
2023-04-15T12:02:14.466Z,1.63
2023-04-15T12:04:42.962Z,1.61
2023-04-15T12:07:12.670Z,1.67
2023-04-15T12:22:29.485Z,1.53
2023-04-15T12:24:57.861Z,1.53
2023-04-15T12:37:43.293Z,1.90
2023-04-15T12:47:51.190Z,1.61
2023-04-15T12:55:25.442Z,1.25
2023-04-15T12:57:53.772Z,0.79
2023-04-15T13:00:21.933Z,0.73
2023-04-15T13:02:50.010Z,0.66
2023-04-15T13:05:18.295Z,0.78
2023-04-15T13:07:46.478Z,0.88
2023-04-15T13:10:14.612Z,0.70
2023-04-15T13:12:42.635Z,0.71
2023-04-15T13:15:12.023Z,0.67
2023-04-15T13:17:40.078Z,0.81
2023-04-15T13:20:09.656Z,1.39
2023-04-15T13:22:37.759Z,1.72
2023-04-15T13:25:07.428Z,1.59
2023-04-15T13:27:35.560Z,1.92
2023-04-15T13:30:04.428Z,1.79
2023-04-15T13:32:32.423Z,1.71
2023-04-15T13:35:00.441Z,1.72
2023-04-15T13:37:28.733Z,1.55
2023-04-15T13:39:57.292Z,1.47
2023-04-15T13:42:25.547Z,1.54
2023-04-15T13:44:53.666Z,1.51
2023-04-15T13:47:22.020Z,1.49
2023-04-15T13:49:50.186Z,0.92
2023-04-15T13:52:18.159Z,0.83
2023-04-15T13:54:47.491Z,0.94
2023-04-15T13:57:35.545Z,0.88
2023-04-15T14:00:04.728Z,0.84
2023-04-15T14:02:34.534Z,0.93
2023-04-15T14:05:02.546Z,0.78
2023-04-15T14:07:30.973Z,0.78
2023-04-15T14:09:59.153Z,0.87
2023-04-15T14:12:27.375Z,0.89
2023-04-15T14:14:55.556Z,0.79
2023-04-15T14:17:23.650Z,0.91
2023-04-15T14:19:51.738Z,0.90
2023-04-15T14:22:19.726Z,0.82
2023-04-15T14:24:49.258Z,0.90
2023-04-15T14:27:17.242Z,0.87
2023-04-15T14:29:45.256Z,0.98
2023-04-15T14:32:14.429Z,0.88
2023-04-15T14:34:44.138Z,0.97
2023-04-15T14:37:12.266Z,0.92
2023-04-15T14:39:40.859Z,0.88
2023-04-15T14:42:08.836Z,0.91
2023-04-15T14:44:36.927Z,0.85
2023-04-15T14:47:05.031Z,0.77
2023-04-15T14:49:32.977Z,0.80
2023-04-15T14:52:01.142Z,0.87
2023-04-15T14:54:29.157Z,0.92
2023-04-15T14:56:57.369Z,0.92
2023-04-15T14:59:25.532Z,1.02
2023-04-15T15:01:53.795Z,0.86
2023-04-15T15:04:21.929Z,0.96
2023-04-15T15:06:50.029Z,0.99
2023-04-15T15:09:19.811Z,0.93
2023-04-15T15:11:47.920Z,0.97
2023-04-15T15:14:15.930Z,1.04
2023-04-15T15:16:44.052Z,1.04
2023-04-15T15:19:12.017Z,0.78
2023-04-15T15:21:40.294Z,0.83
2023-04-15T15:24:08.320Z,1.04
2023-04-15T15:26:36.316Z,1.01
2023-04-15T15:29:04.660Z,1.09
2023-04-15T15:31:34.953Z,1.17
2023-04-15T15:34:03.937Z,1.21
2023-04-15T15:36:32.017Z,1.29
2023-04-15T15:39:00.261Z,1.38
2023-04-15T15:41:28.302Z,1.40
2023-04-15T15:43:56.492Z,1.45
2023-04-15T15:46:25.060Z,1.59
2023-04-15T15:48:53.193Z,1.81
2023-04-15T15:51:21.287Z,1.40
2023-04-15T15:53:49.404Z,1.44
2023-04-15T15:56:17.468Z,1.34
2023-04-15T15:58:45.581Z,1.52
2023-04-15T16:01:13.782Z,1.27
2023-04-15T16:03:41.885Z,1.46
2023-04-15T16:06:09.959Z,1.47
2023-04-15T16:11:10.902Z,1.68
2023-04-15T16:13:38.873Z,1.77
2023-04-15T16:16:07.227Z,1.54
2023-04-15T16:18:35.609Z,1.19
2023-04-15T16:21:03.756Z,1.12
2023-04-15T16:23:31.759Z,1.20
2023-04-15T16:25:59.892Z,1.25
2023-04-15T16:28:27.982Z,1.30
2023-04-15T16:30:57.135Z,1.09
2023-04-15T16:38:31.507Z,1.26
2023-04-15T16:41:00.179Z,1.13
2023-04-15T16:43:28.470Z,1.21
2023-04-15T16:45:56.529Z,1.29
2023-04-15T16:48:24.737Z,1.77
2023-04-15T16:50:52.751Z,1.34
2023-04-15T16:53:20.889Z,1.31
2023-04-15T16:58:21.863Z,1.70
2023-04-15T17:03:23.859Z,2.22
2023-04-15T17:05:52.002Z,2.50
2023-04-15T17:08:20.038Z,2.31
2023-04-15T17:10:48.110Z,3.03
2023-04-15T17:13:16.176Z,3.72
2023-04-15T17:20:50.657Z,3.12
2023-04-15T17:25:51.709Z,4.95
2023-04-15T17:28:19.716Z,4.25
2023-04-15T17:30:47.762Z,3.98
2023-04-15T17:33:58.852Z,4.01
2023-04-15T17:36:03.782Z,5.41
2023-04-15T17:41:05.677Z,5.34
2023-04-15T17:43:33.908Z,4.75
2023-04-15T17:46:01.970Z,4.18
2023-04-15T17:48:29.997Z,4.24
2023-04-15T17:50:58.160Z,4.42
2023-04-15T17:53:26.198Z,4.92
2023-04-15T17:55:54.380Z,5.18
2023-04-15T17:58:22.310Z,4.90
2023-04-15T18:00:50.562Z,6.53
2023-04-15T18:03:18.678Z,8.23
2023-04-15T18:05:46.798Z,7.47
2023-04-15T18:08:14.934Z,6.80
2023-04-15T18:10:42.944Z,7.02
2023-04-15T18:13:10.946Z,6.72
2023-04-15T18:15:39.000Z,5.69
2023-04-15T18:18:07.076Z,20.78
2023-04-15T18:20:35.336Z,37.38
2023-04-15T18:23:03.345Z,22.32
2023-04-15T18:25:32.017Z,10.80
2023-04-15T18:28:00.193Z,9.79
2023-04-15T18:30:28.250Z,9.93
2023-04-15T18:32:56.575Z,9.96
2023-04-15T18:35:24.848Z,9.79
2023-04-15T18:37:53.125Z,8.09
2023-04-15T18:40:21.213Z,8.02
2023-04-15T18:42:49.314Z,7.89
2023-04-15T18:45:17.408Z,8.50
2023-04-15T18:47:45.628Z,8.27
2023-04-15T18:50:13.622Z,8.45
2023-04-15T18:52:41.697Z,8.35
2023-04-15T18:55:09.698Z,7.71
2023-04-15T18:57:42.566Z,7.89
2023-04-15T19:00:13.403Z,8.25
2023-04-15T19:02:42.377Z,7.24
2023-04-15T19:05:10.679Z,7.14
2023-04-15T19:07:38.784Z,8.06
2023-04-15T19:10:07.334Z,8.11
2023-04-15T19:12:36.610Z,7.41
2023-04-15T19:15:05.106Z,7.73
2023-04-15T19:17:33.311Z,7.33
2023-04-15T19:20:01.662Z,7.23
2023-04-15T19:22:29.876Z,7.41
2023-04-15T19:24:58.100Z,7.89
2023-04-15T19:27:26.957Z,8.13
2023-04-15T19:29:54.972Z,8.36
2023-04-15T19:32:23.192Z,8.14
2023-04-15T19:34:51.372Z,8.35
2023-04-15T19:37:19.511Z,8.03
2023-04-15T19:39:47.602Z,8.02
2023-04-15T19:42:15.697Z,7.87
2023-04-15T19:44:43.851Z,8.67
2023-04-15T19:47:11.944Z,9.10
2023-04-15T19:49:40.589Z,9.12
2023-04-15T19:52:08.606Z,9.81
2023-04-15T19:54:36.998Z,9.05
2023-04-15T19:57:05.294Z,8.96
2023-04-15T19:59:33.750Z,7.51
2023-04-15T20:02:02.153Z,8.83
2023-04-15T20:04:30.456Z,10.49
2023-04-15T20:06:58.574Z,11.64
2023-04-15T20:09:26.675Z,11.20
2023-04-15T20:12:46.637Z,11.73
2023-04-15T20:14:43.036Z,11.45
2023-04-15T20:17:11.210Z,11.57
2023-04-15T20:19:39.293Z,11.89
2023-04-15T20:22:07.467Z,12.05
2023-04-15T20:24:35.535Z,13.11
2023-04-15T20:27:04.065Z,13.10
2023-04-15T20:29:32.332Z,12.92
2023-04-15T20:32:00.502Z,12.09
2023-04-15T20:34:28.627Z,11.88
2023-04-15T20:36:57.023Z,11.86
2023-04-15T20:39:25.329Z,10.58
2023-04-15T20:41:53.387Z,10.89
2023-04-15T20:44:21.494Z,11.35
2023-04-15T20:46:49.593Z,11.82
2023-04-15T20:49:17.848Z,13.06
2023-04-15T20:51:46.138Z,12.71
2023-04-15T20:54:14.840Z,11.87
2023-04-15T20:56:42.891Z,9.42
2023-04-15T20:59:10.909Z,6.21
2023-04-15T21:01:40.253Z,5.04
2023-04-15T21:04:08.511Z,5.27
2023-04-15T21:06:36.560Z,5.55
2023-04-15T21:09:04.935Z,5.18
2023-04-15T21:11:53.121Z,5.00
2023-04-15T21:14:21.313Z,5.41
2023-04-15T21:16:49.319Z,5.96
2023-04-15T21:19:17.534Z,5.47
2023-04-15T21:21:45.678Z,6.53
2023-04-15T21:24:13.802Z,8.03
2023-04-15T21:26:41.830Z,7.33
2023-04-15T21:29:11.573Z,7.49
2023-04-15T21:31:40.401Z,7.71
2023-04-15T21:34:08.648Z,8.92
2023-04-15T21:36:37.473Z,8.32
2023-04-15T21:39:06.229Z,9.11
2023-04-15T21:41:34.464Z,8.79
2023-04-15T21:44:03.370Z,8.14
2023-04-15T21:46:32.758Z,6.98
2023-04-15T21:49:01.470Z,7.06
2023-04-15T21:51:29.562Z,7.58
2023-04-15T21:53:57.655Z,8.01
2023-04-15T21:56:26.061Z,8.16
2023-04-15T22:01:29.952Z,7.44
2023-04-15T22:03:58.180Z,7.65
2023-04-15T22:06:27.187Z,8.08
2023-04-15T22:08:57.798Z,7.72
2023-04-15T22:11:30.540Z,7.17
2023-04-15T22:13:58.989Z,7.99
2023-04-15T22:16:27.409Z,8.17
2023-04-15T22:18:55.824Z,7.92
2023-04-15T22:21:23.989Z,8.00
2023-04-15T22:23:52.040Z,7.28
2023-04-15T22:26:20.029Z,6.35
2023-04-15T22:28:48.243Z,4.85
2023-04-15T22:31:16.372Z,4.89
2023-04-15T22:33:44.377Z,3.84
2023-04-15T22:36:13.633Z,3.20
2023-04-15T22:38:41.825Z,3.10
2023-04-15T22:41:09.901Z,3.03
2023-04-15T22:43:37.975Z,2.95
2023-04-15T22:46:06.093Z,3.10
2023-04-15T22:48:35.001Z,4.17
2023-04-15T22:51:04.012Z,4.86
2023-04-15T22:53:32.036Z,4.69
2023-04-15T22:56:00.128Z,4.51
2023-04-15T22:58:28.127Z,4.26
2023-04-15T23:00:56.309Z,4.47
2023-04-15T23:03:24.753Z,4.88
2023-04-15T23:05:53.063Z,5.44
2023-04-15T23:08:21.230Z,6.36
2023-04-15T23:10:50.410Z,5.56
2023-04-15T23:13:18.379Z,6.06
2023-04-15T23:15:46.401Z,5.14
2023-04-15T23:18:14.416Z,5.24
2023-04-15T23:20:42.399Z,5.28
2023-04-15T23:23:10.368Z,5.20
2023-04-15T23:25:38.461Z,5.28
2023-04-15T23:28:06.468Z,5.80
2023-04-15T23:30:34.462Z,5.94
2023-04-15T23:33:02.631Z,6.26
2023-04-15T23:35:30.848Z,6.97
2023-04-15T23:37:58.822Z,6.85
2023-04-15T23:40:26.816Z,6.56
2023-04-15T23:42:54.775Z,6.62
2023-04-15T23:45:22.886Z,7.15
2023-04-15T23:47:50.858Z,8.28
2023-04-15T23:50:19.120Z,8.86
2023-04-15T23:52:47.118Z,8.68
2023-04-15T23:55:15.213Z,8.06
2023-04-15T23:57:43.302Z,8.29
